createdAt,value
2018-09-20T00:06:15.000Z,23.95
2018-09-20T00:16:15.000Z,24.05
2018-09-20T00:26:15.000Z,24.02
2018-09-20T00:36:15.000Z,23.95
2018-09-20T00:46:15.000Z,23.94
2018-09-20T00:56:15.000Z,23.88
2018-09-20T01:06:15.000Z,23.81
2018-09-20T01:16:15.000Z,23.8
2018-09-20T01:26:15.000Z,23.78
2018-09-20T01:36:15.000Z,23.75
2018-09-20T01:46:15.000Z,23.6
2018-09-20T01:56:15.000Z,23.69
2018-09-20T02:06:15.000Z,23.69
2018-09-20T02:16:15.000Z,23.5
2018-09-20T02:26:15.000Z,23.52
2018-09-20T02:36:15.000Z,23.47
2018-09-20T02:46:15.000Z,23.46
2018-09-20T02:56:15.000Z,23.39
2018-09-20T03:06:15.000Z,23.24
2018-09-20T03:16:15.000Z,23.29
2018-09-20T03:26:15.000Z,23.29
2018-09-20T03:36:16.000Z,23.21
2018-09-20T03:46:16.000Z,23.19
2018-09-20T03:56:16.000Z,23.14
2018-09-20T04:06:16.000Z,23.28
2018-09-20T04:16:16.000Z,23.14
2018-09-20T04:26:16.000Z,23.06
2018-09-20T04:36:16.000Z,22.99
2018-09-20T04:46:16.000Z,23.15
2018-09-20T04:56:16.000Z,23.03
2018-09-20T05:06:16.000Z,23.03
2018-09-20T05:16:16.000Z,22.98
2018-09-20T05:26:16.000Z,23.01
2018-09-20T05:36:16.000Z,23.01
2018-09-20T05:46:16.000Z,22.95
2018-09-20T05:56:16.000Z,22.78
2018-09-20T06:06:16.000Z,22.7
2018-09-20T06:16:16.000Z,22.91
2018-09-20T06:26:16.000Z,22.95
2018-09-20T06:36:16.000Z,22.64
2018-09-20T06:46:16.000Z,22.57
2018-09-20T06:56:16.000Z,22.62
2018-09-20T07:06:16.000Z,22.8
2018-09-20T07:16:16.000Z,22.71
2018-09-20T07:26:16.000Z,22.79
2018-09-20T07:36:16.000Z,22.9
2018-09-20T07:46:16.000Z,22.9
2018-09-20T07:56:16.000Z,23.07
2018-09-20T08:06:16.000Z,23.05
2018-09-20T08:16:16.000Z,23.08
2018-09-20T08:26:16.000Z,23.17
2018-09-20T08:36:16.000Z,23.27
2018-09-20T08:46:16.000Z,23.44
2018-09-20T08:56:16.000Z,23.16
2018-09-20T09:06:16.000Z,23.64
2018-09-20T09:16:16.000Z,23.67
2018-09-20T09:26:16.000Z,23.97
2018-09-20T09:36:17.000Z,24.31
2018-09-20T09:46:16.000Z,24.5
2018-09-20T09:56:16.000Z,24.59
2018-09-20T10:06:16.000Z,24.59
2018-09-20T10:16:16.000Z,24.57
2018-09-20T10:26:16.000Z,24.77
2018-09-20T10:36:16.000Z,25.11
2018-09-20T10:46:16.000Z,25.03
2018-09-20T10:56:16.000Z,25.01
2018-09-20T11:06:16.000Z,24.98
2018-09-20T11:16:16.000Z,25.06
2018-09-20T11:26:16.000Z,25.04
2018-09-20T11:36:17.000Z,25.02
2018-09-20T11:46:17.000Z,25.14
2018-09-20T11:56:16.000Z,25.14
2018-09-20T12:06:17.000Z,25.3
2018-09-20T12:16:17.000Z,25.32
2018-09-20T12:26:17.000Z,25.34
2018-09-20T12:36:17.000Z,25.31
2018-09-20T12:46:17.000Z,25.35
2018-09-20T12:56:17.000Z,25.34
2018-09-20T13:06:17.000Z,25.3
2018-09-20T13:16:17.000Z,25.34
2018-09-20T13:26:17.000Z,25.33
2018-09-20T13:36:17.000Z,25.24
2018-09-20T13:46:17.000Z,25.33
2018-09-20T13:56:17.000Z,25.23
2018-09-20T14:06:17.000Z,25.27
2018-09-20T14:16:17.000Z,25.21
2018-09-20T14:26:17.000Z,25.22
2018-09-20T14:36:17.000Z,25.23
2018-09-20T14:46:17.000Z,25.21
2018-09-20T14:56:17.000Z,25.22
2018-09-20T15:06:17.000Z,25.22
2018-09-20T15:16:17.000Z,25.26
2018-09-20T15:26:17.000Z,25.18
2018-09-20T15:36:17.000Z,25.19
2018-09-20T15:46:17.000Z,25.16
2018-09-20T15:56:17.000Z,25.14
2018-09-20T16:06:17.000Z,25.16
2018-09-20T16:16:17.000Z,25.2
2018-09-20T16:26:17.000Z,25.1
2018-09-20T16:36:17.000Z,25.08
2018-09-20T16:46:17.000Z,25.11
2018-09-20T16:56:17.000Z,25.07
2018-09-20T17:06:17.000Z,25.02
2018-09-20T17:16:17.000Z,24.99
2018-09-20T17:26:17.000Z,25.01
2018-09-20T17:36:17.000Z,24.95
2018-09-20T17:46:17.000Z,24.95
2018-09-20T17:56:17.000Z,24.89
2018-09-20T18:06:17.000Z,24.86
2018-09-20T18:16:22.000Z,24.79
2018-09-20T18:26:17.000Z,24.79
2018-09-20T18:36:18.000Z,24.72
2018-09-20T18:46:17.000Z,24.71
2018-09-20T18:56:17.000Z,24.7
2018-09-20T19:06:17.000Z,24.66
2018-09-20T19:16:17.000Z,24.66
2018-09-20T19:26:17.000Z,24.61
2018-09-20T19:36:17.000Z,24.59
2018-09-20T19:46:17.000Z,24.45
2018-09-20T19:56:17.000Z,24.55
2018-09-20T20:06:18.000Z,24.36
2018-09-20T20:16:18.000Z,24.5
2018-09-20T20:26:18.000Z,24.41
2018-09-20T20:36:18.000Z,24.33
2018-09-20T20:46:18.000Z,24.175
2018-09-20T20:56:18.000Z,24.12
2018-09-20T21:06:18.000Z,23.96
2018-09-20T21:16:18.000Z,23.93
2018-09-20T21:26:18.000Z,23.83
2018-09-20T21:36:18.000Z,23.81
2018-09-20T21:46:18.000Z,23.79
2018-09-20T21:56:18.000Z,23.71
2018-09-20T22:06:18.000Z,23.81
2018-09-20T22:16:18.000Z,23.65
2018-09-20T22:26:18.000Z,23.62
2018-09-20T22:36:18.000Z,23.52
2018-09-20T22:46:18.000Z,23.54
2018-09-20T22:56:18.000Z,23.44
2018-09-20T23:06:18.000Z,23.41
2018-09-20T23:16:18.000Z,23.4
2018-09-20T23:26:18.000Z,23.38
2018-09-20T23:36:18.000Z,23.31
2018-09-20T23:46:18.000Z,23.28
2018-09-20T23:56:18.000Z,23.25
